KLRD

Laredo International Airport

Laredo, Texas, USA
METAR KLRD 201456Z 13009KT 10SM CLR 30/23 A2998 RMK AO2 SLP148 T03000228 51016
Observed Flight Rules
Aug-20 @ 14:56 UTC (an hour ago) Visual Flight Rules
Wind Visibility Clouds
130° at 9 knots 10 miles
  • Clear skies
Temperatures Readings
Current 30°C / 86°F
Dewpoint 23°C / 73°F
Humidity 66%
Altimeter 29.98" Hg
Pressure 1014.8 hPa
Elevation 155
METAR KLRD 201456Z 13009KT 10SM CLR 30/23 A2998 RMK AO2 SLP148 T03000228 51016
Observed Flight Rules
Aug-20 @ 14:56 UTC
(an hour ago)
VFR
Wind Visibility
130° at 9 knots 10 miles
Clouds
  • Clear skies
Temperature Dewpoint
30°C / 86°F 23°C / 73°F
Humidity Altimeter Pressure
66% 29.98" Hg 1014.8 hPa